sensor_id;sensor_type;location;lat;lon;timestamp;pressure;altitude;pressure_sealevel;temperature;humidity
49945;BME280;35838;49.134;9.212;2023-04-30T00:00:47;100243.91;;;12.69;100.00
49945;BME280;35838;49.134;9.212;2023-04-30T00:02:21;100237.84;;;12.66;100.00
49945;BME280;35838;49.134;9.212;2023-04-30T00:03:55;100236.16;;;12.62;100.00
49945;BME280;35838;49.134;9.212;2023-04-30T00:05:28;100234.41;;;12.64;100.00
49945;BME280;35838;49.134;9.212;2023-04-30T00:07:02;100235.28;;;12.64;100.00
49945;BME280;35838;49.134;9.212;2023-04-30T00:08:35;100232.69;;;12.63;100.00
49945;BME280;35838;49.134;9.212;2023-04-30T00:10:09;100233.53;;;12.63;100.00
49945;BME280;35838;49.134;9.212;2023-04-30T00:11:46;100230.94;;;12.65;100.00
49945;BME280;35838;49.134;9.212;2023-04-30T00:13:17;100232.72;;;12.55;100.00
49945;BME280;35838;49.134;9.212;2023-04-30T00:14:50;100239.69;;;12.54;100.00
49945;BME280;35838;49.134;9.212;2023-04-30T00:16:25;100243.16;;;12.55;100.00
49945;BME280;35838;49.134;9.212;2023-04-30T00:17:59;100250.06;;;12.58;100.00
49945;BME280;35838;49.134;9.212;2023-04-30T00:19:33;100246.63;;;12.56;100.00
49945;BME280;35838;49.134;9.212;2023-04-30T00:21:04;100248.31;;;12.60;100.00
49945;BME280;35838;49.134;9.212;2023-04-30T00:22:37;100239.66;;;12.56;100.00
49945;BME280;35838;49.134;9.212;2023-04-30T00:24:11;100237.06;;;12.59;100.00
49945;BME280;35838;49.134;9.212;2023-04-30T00:25:45;100240.53;;;12.58;100.00
49945;BME280;35838;49.134;9.212;2023-04-30T00:27:21;100246.63;;;12.56;100.00
49945;BME280;35838;49.134;9.212;2023-04-30T00:28:54;100245.75;;;12.55;100.00
49945;BME280;35838;49.134;9.212;2023-04-30T00:30:25;100248.38;;;12.53;100.00
49945;BME280;35838;49.134;9.212;2023-04-30T00:31:59;100246.66;;;12.51;100.00
49945;BME280;35838;49.134;9.212;2023-04-30T00:33:30;100251.84;;;12.56;100.00
49945;BME280;35838;49.134;9.212;2023-04-30T00:35:04;100248.38;;;12.53;100.00
49945;BME280;35838;49.134;9.212;2023-04-30T00:36:35;100253.63;;;12.44;100.00
49945;BME280;35838;49.134;9.212;2023-04-30T00:38:10;100253.59;;;12.47;100.00
49945;BME280;35838;49.134;9.212;2023-04-30T00:39:44;100251.09;;;12.35;100.00
49945;BME280;35838;49.134;9.212;2023-04-30T00:41:18;100259.75;;;12.37;100.00
49945;BME280;35838;49.134;9.212;2023-04-30T00:42:55;100263.19;;;12.39;100.00
49945;BME280;35838;49.134;9.212;2023-04-30T00:44:29;100258.84;;;12.44;100.00
49945;BME280;35838;49.134;9.212;2023-04-30T00:46:03;100260.56;;;12.45;100.00
49945;BME280;35838;49.134;9.212;2023-04-30T00:47:36;100265.75;;;12.48;100.00
49945;BME280;35838;49.134;9.212;2023-04-30T00:49:07;100261.41;;;12.49;100.00
49945;BME280;35838;49.134;9.212;2023-04-30T00:50:41;100264.00;;;12.47;100.00
49945;BME280;35838;49.134;9.212;2023-04-30T00:52:16;100258.81;;;12.46;100.00
49945;BME280;35838;49.134;9.212;2023-04-30T00:53:50;100269.25;;;12.44;100.00
49945;BME280;35838;49.134;9.212;2023-04-30T00:55:23;100265.81;;;12.34;100.00
49945;BME280;35838;49.134;9.212;2023-04-30T00:56:57;100270.19;;;12.31;100.00
49945;BME280;35838;49.134;9.212;2023-04-30T00:58:34;100275.38;;;12.34;100.00
49945;BME280;35838;49.134;9.212;2023-04-30T01:00:05;100271.03;;;12.33;100.00
49945;BME280;35838;49.134;9.212;2023-04-30T01:01:40;100271.03;;;12.33;100.00
49945;BME280;35838;49.134;9.212;2023-04-30T01:03:14;100271.94;;;12.27;100.00
49945;BME280;35838;49.134;9.212;2023-04-30T01:04:45;100274.50;;;12.36;100.00
49945;BME280;35838;49.134;9.212;2023-04-30T01:06:19;100267.56;;;12.37;100.00
49945;BME280;35838;49.134;9.212;2023-04-30T01:07:53;100271.09;;;12.27;100.00
49945;BME280;35838;49.134;9.212;2023-04-30T01:09:24;100275.41;;;12.32;100.00
49945;BME280;35838;49.134;9.212;2023-04-30T01:11:01;100282.34;;;12.33;100.00
49945;BME280;35838;49.134;9.212;2023-04-30T01:12:36;100273.72;;;12.22;100.00
49945;BME280;35838;49.134;9.212;2023-04-30T01:14:15;100276.25;;;12.30;100.00
49945;BME280;35838;49.134;9.212;2023-04-30T01:15:53;100278.88;;;12.28;100.00
49945;BME280;35838;49.134;9.212;2023-04-30T01:17:31;100275.41;;;12.26;100.00
49945;BME280;35838;49.134;9.212;2023-04-30T01:19:08;100278.00;;;12.31;100.00
49945;BME280;35838;49.134;9.212;2023-04-30T01:20:45;100272.81;;;12.25;100.00
49945;BME280;35838;49.134;9.212;2023-04-30T01:22:24;100273.66;;;12.30;100.00
49945;BME280;35838;49.134;9.212;2023-04-30T01:24:17;100277.13;;;12.30;100.00
49945;BME280;35838;49.134;9.212;2023-04-30T01:26:05;100274.59;;;12.16;100.00
49945;BME280;35838;49.134;9.212;2023-04-30T01:28:04;100269.41;;;12.16;100.00
49945;BME280;35838;49.134;9.212;2023-04-30T01:29:40;100274.59;;;12.16;100.00
49945;BME280;35838;49.134;9.212;2023-04-30T01:31:14;100264.28;;;11.98;100.00
49945;BME280;35838;49.134;9.212;2023-04-30T01:32:50;100262.53;;;12.00;100.00
49945;BME280;35838;49.134;9.212;2023-04-30T01:34:23;100266.00;;;12.02;100.00
49945;BME280;35838;49.134;9.212;2023-04-30T01:36:07;100265.97;;;12.05;100.00
49945;BME280;35838;49.134;9.212;2023-04-30T01:39:38;100270.31;;;12.04;100.00
49945;BME280;35838;49.134;9.212;2023-04-30T01:41:17;100265.09;;;12.11;100.00
49945;BME280;35838;49.134;9.212;2023-04-30T01:42:52;100265.06;;;12.15;100.00
49945;BME280;35838;49.134;9.212;2023-04-30T01:44:38;100261.59;;;12.13;100.00
49945;BME280;35838;49.134;9.212;2023-04-30T01:46:17;100259.94;;;12.03;100.00
49945;BME280;35838;49.134;9.212;2023-04-30T01:48:05;100253.81;;;12.10;100.00
49945;BME280;35838;49.134;9.212;2023-04-30T01:49:44;100259.88;;;12.14;100.00
49945;BME280;35838;49.134;9.212;2023-04-30T01:51:21;100259.00;;;12.13;100.00
49945;BME280;35838;49.134;9.212;2023-04-30T01:52:58;100259.94;;;11.98;100.00
49945;BME280;35838;49.134;9.212;2023-04-30T01:54:33;100258.25;;;11.83;100.00
49945;BME280;35838;49.134;9.212;2023-04-30T01:56:11;100255.59;;;11.86;100.00
49945;BME280;35838;49.134;9.212;2023-04-30T01:57:46;100257.34;;;11.90;100.00
49945;BME280;35838;49.134;9.212;2023-04-30T01:59:19;100255.59;;;11.93;100.00
49945;BME280;35838;49.134;9.212;2023-04-30T08:03:10;100256.44;;;14.73;100.00
49945;BME280;35838;49.134;9.212;2023-04-30T08:04:44;100255.41;;;14.82;100.00
49945;BME280;35838;49.134;9.212;2023-04-30T08:06:18;100241.28;;;14.96;100.00
49945;BME280;35838;49.134;9.212;2023-04-30T08:07:52;100250.03;;;14.92;100.00
49945;BME280;35838;49.134;9.212;2023-04-30T08:09:26;100253.63;;;14.87;100.00
49945;BME280;35838;49.134;9.212;2023-04-30T08:10:59;100245.56;;;15.01;100.00
49945;BME280;35838;49.134;9.212;2023-04-30T08:12:34;100244.00;;;14.88;100.00
49945;BME280;35838;49.134;9.212;2023-04-30T08:14:08;100241.53;;;14.80;100.00
49945;BME280;35838;49.134;9.212;2023-04-30T08:15:41;100242.28;;;14.88;100.00
49945;BME280;35838;49.134;9.212;2023-04-30T08:17:15;100249.84;;;15.04;100.00
49945;BME280;35838;49.134;9.212;2023-04-30T08:18:52;100253.06;;;15.20;100.00
49945;BME280;35838;49.134;9.212;2023-04-30T08:20:25;100248.72;;;15.19;100.00
49945;BME280;35838;49.134;9.212;2023-04-30T08:21:59;100243.66;;;15.10;100.00
49945;BME280;35838;49.134;9.212;2023-04-30T08:23:33;100253.88;;;15.22;100.00
49945;BME280;35838;49.134;9.212;2023-04-30T08:25:08;100247.94;;;15.15;100.00
49945;BME280;35838;49.134;9.212;2023-04-30T08:26:42;100246.69;;;15.37;100.00
49945;BME280;35838;49.134;9.212;2023-04-30T08:28:16;100240.34;;;15.48;100.00
49945;BME280;35838;49.134;9.212;2023-04-30T08:29:50;100243.63;;;15.60;100.00
49945;BME280;35838;49.134;9.212;2023-04-30T08:31:23;100241.69;;;15.70;100.00
49945;BME280;35838;49.134;9.212;2023-04-30T08:32:57;100237.22;;;15.75;100.00
49945;BME280;35838;49.134;9.212;2023-04-30T08:34:33;100234.59;;;15.75;100.00
49945;BME280;35838;49.134;9.212;2023-04-30T08:36:07;100228.72;;;15.63;100.00
49945;BME280;35838;49.134;9.212;2023-04-30T08:37:40;100227.06;;;15.59;100.00
49945;BME280;35838;49.134;9.212;2023-04-30T08:39:14;100227.34;;;15.44;100.00
49945;BME280;35838;49.134;9.212;2023-04-30T08:40:50;100224.31;;;15.67;100.00
49945;BME280;35838;49.134;9.212;2023-04-30T08:42:25;100230.97;;;15.84;100.00
49945;BME280;35838;49.134;9.212;2023-04-30T08:44:02;100229.09;;;15.90;100.00
49945;BME280;35838;49.134;9.212;2023-04-30T08:45:36;100226.63;;;15.81;100.00
49945;BME280;35838;49.134;9.212;2023-04-30T08:47:11;100217.22;;;15.72;100.00
49945;BME280;35838;49.134;9.212;2023-04-30T08:48:45;100223.72;;;15.51;100.00
49945;BME280;35838;49.134;9.212;2023-04-30T08:50:22;100227.09;;;15.56;100.00
49945;BME280;35838;49.134;9.212;2023-04-30T08:51:56;100229.09;;;15.43;100.00
49945;BME280;35838;49.134;9.212;2023-04-30T08:53:31;100223.69;;;15.54;99.70
49945;BME280;35838;49.134;9.212;2023-04-30T08:55:07;100227.94;;;15.58;99.24
49945;BME280;35838;49.134;9.212;2023-04-30T08:56:43;100225.50;;;15.50;97.39
49945;BME280;35838;49.134;9.212;2023-04-30T08:58:17;100230.56;;;15.58;100.00
49945;BME280;35838;49.134;9.212;2023-04-30T08:59:50;100227.00;;;15.62;97.25
49945;BME280;35838;49.134;9.212;2023-04-30T09:01:24;100237.38;;;15.65;98.23
49945;BME280;35838;49.134;9.212;2023-04-30T09:02:59;100230.25;;;15.74;99.24
49945;BME280;35838;49.134;9.212;2023-04-30T09:04:33;100218.13;;;15.70;97.91
49945;BME280;35838;49.134;9.212;2023-04-30T09:06:13;100230.19;;;15.77;99.11
49945;BME280;35838;49.134;9.212;2023-04-30T09:07:47;100220.03;;;15.61;94.46
49945;BME280;35838;49.134;9.212;2023-04-30T09:09:21;100230.16;;;15.78;97.32
49945;BME280;35838;49.134;9.212;2023-04-30T09:10:54;100222.34;;;15.77;89.90
49945;BME280;35838;49.134;9.212;2023-04-30T09:12:28;100224.97;;;15.77;86.17
49945;BME280;35838;49.134;9.212;2023-04-30T09:14:01;100219.06;;;15.65;84.77
49945;BME280;35838;49.134;9.212;2023-04-30T09:15:35;100222.25;;;15.81;87.96
49945;BME280;35838;49.134;9.212;2023-04-30T09:17:11;100219.53;;;15.89;89.52
49945;BME280;35838;49.134;9.212;2023-04-30T09:18:54;100228.38;;;15.82;88.39
49945;BME280;35838;49.134;9.212;2023-04-30T09:20:28;100233.22;;;16.01;91.22
49945;BME280;35838;49.134;9.212;2023-04-30T09:22:20;100218.97;;;16.14;87.72
49945;BME280;35838;49.134;9.212;2023-04-30T09:23:54;100223.34;;;16.15;83.76
49945;BME280;35838;49.134;9.212;2023-04-30T09:25:36;100219.13;;;16.06;82.89
49945;BME280;35838;49.134;9.212;2023-04-30T09:27:14;100227.69;;;16.16;83.74
49945;BME280;35838;49.134;9.212;2023-04-30T09:28:53;100220.56;;;16.21;82.59
49945;BME280;35838;49.134;9.212;2023-04-30T09:30:30;100210.72;;;16.31;84.40
49945;BME280;35838;49.134;9.212;2023-04-30T09:32:06;100224.50;;;16.41;83.57
49945;BME280;35838;49.134;9.212;2023-04-30T09:33:44;100210.41;;;16.47;82.58
49945;BME280;35838;49.134;9.212;2023-04-30T09:35:27;100219.16;;;16.44;77.92
49945;BME280;35838;49.134;9.212;2023-04-30T09:37:01;100210.34;;;16.48;78.15
49945;BME280;35838;49.134;9.212;2023-04-30T09:38:37;100209.41;;;16.52;77.63
49945;BME280;35838;49.134;9.212;2023-04-30T09:40:11;100212.06;;;16.49;74.00
49945;BME280;35838;49.134;9.212;2023-04-30T09:41:45;100210.53;;;16.40;71.69
49945;BME280;35838;49.134;9.212;2023-04-30T09:43:19;100216.63;;;16.41;72.60
49945;BME280;35838;49.134;9.212;2023-04-30T09:44:53;100214.03;;;16.41;73.12
49945;BME280;35838;49.134;9.212;2023-04-30T09:46:29;100212.88;;;16.13;68.54
49945;BME280;35838;49.134;9.212;2023-04-30T09:48:03;100213.53;;;16.23;70.82
49945;BME280;35838;49.134;9.212;2023-04-30T09:49:36;100206.38;;;16.32;69.69
49945;BME280;35838;49.134;9.212;2023-04-30T09:51:10;100209.94;;;16.27;67.21
49945;BME280;35838;49.134;9.212;2023-04-30T09:52:46;100210.81;;;16.28;72.04
49945;BME280;35838;49.134;9.212;2023-04-30T09:54:24;100208.84;;;16.38;74.68
49945;BME280;35838;49.134;9.212;2023-04-30T09:55:58;100214.28;;;16.28;70.73
49945;BME280;35838;49.134;9.212;2023-04-30T09:57:35;100209.53;;;16.46;69.53
49945;BME280;35838;49.134;9.212;2023-04-30T09:59:08;100213.34;;;16.31;68.96
49945;BME280;35838;49.134;9.212;2023-04-30T10:00:44;100214.81;;;16.44;69.46
49945;BME280;35838;49.134;9.212;2023-04-30T10:02:19;100211.66;;;16.30;67.59
49945;BME280;35838;49.134;9.212;2023-04-30T10:03:53;100212.41;;;16.35;71.76
49945;BME280;35838;49.134;9.212;2023-04-30T10:05:27;100214.16;;;16.35;71.50
49945;BME280;35838;49.134;9.212;2023-04-30T10:06:59;100213.81;;;16.11;67.98
49945;BME280;35838;49.134;9.212;2023-04-30T10:08:36;100207.63;;;16.13;68.81
49945;BME280;35838;49.134;9.212;2023-04-30T10:10:15;100199.56;;;16.24;76.90
49945;BME280;35838;49.134;9.212;2023-04-30T10:11:48;100198.56;;;16.30;67.13
49945;BME280;35838;49.134;9.212;2023-04-30T10:13:23;100195.63;;;16.42;71.19
49945;BME280;35838;49.134;9.212;2023-04-30T10:15:00;100192.66;;;16.58;75.25
49945;BME280;35838;49.134;9.212;2023-04-30T10:16:39;100195.03;;;16.69;74.88
49945;BME280;35838;49.134;9.212;2023-04-30T10:18:17;100192.28;;;16.73;72.04
49945;BME280;35838;49.134;9.212;2023-04-30T10:19:51;100192.97;;;16.80;73.58
49945;BME280;35838;49.134;9.212;2023-04-30T10:21:29;100192.06;;;16.83;73.90
49945;BME280;35838;49.134;9.212;2023-04-30T10:23:04;100192.06;;;16.83;71.54
49945;BME280;35838;49.134;9.212;2023-04-30T10:24:38;100187.72;;;16.80;76.23
49945;BME280;35838;49.134;9.212;2023-04-30T10:26:14;100188.56;;;16.82;76.48
49945;BME280;35838;49.134;9.212;2023-04-30T10:27:49;100174.59;;;16.82;73.33
49945;BME280;35838;49.134;9.212;2023-04-30T10:29:22;100181.59;;;16.81;72.11
49945;BME280;35838;49.134;9.212;2023-04-30T10:30:56;100176.34;;;16.81;72.51
49945;BME280;35838;49.134;9.212;2023-04-30T10:32:31;100183.97;;;16.90;74.49
49945;BME280;35838;49.134;9.212;2023-04-30T10:34:11;100182.09;;;16.97;74.41
49945;BME280;35838;49.134;9.212;2023-04-30T10:35:48;100181.25;;;16.97;69.68
49945;BME280;35838;49.134;9.212;2023-04-30T10:37:27;100178.75;;;16.90;68.00
49945;BME280;35838;49.134;9.212;2023-04-30T10:39:03;100176.81;;;16.99;72.59
49945;BME280;35838;49.134;9.212;2023-04-30T10:40:37;100188.25;;;16.96;73.28
49945;BME280;35838;49.134;9.212;2023-04-30T10:42:14;100185.56;;;16.98;73.09
49945;BME280;35838;49.134;9.212;2023-04-30T10:43:47;100173.28;;;17.00;71.39
49945;BME280;35838;49.134;9.212;2023-04-30T10:45:33;100176.75;;;17.02;73.15
49945;BME280;35838;49.134;9.212;2023-04-30T10:47:07;100175.38;;;16.85;69.14
49945;BME280;35838;49.134;9.212;2023-04-30T10:48:40;100182.66;;;16.74;68.00
49945;BME280;35838;49.134;9.212;2023-04-30T10:50:14;100183.28;;;16.84;71.74
49945;BME280;35838;49.134;9.212;2023-04-30T10:51:50;100174.78;;;16.74;73.37
49945;BME280;35838;49.134;9.212;2023-04-30T10:53:24;100176.34;;;16.83;74.10
49945;BME280;35838;49.134;9.212;2023-04-30T10:55:02;100178.59;;;16.98;76.80
49945;BME280;35838;49.134;9.212;2023-04-30T10:56:37;100182.72;;;17.07;78.83
49945;BME280;35838;49.134;9.212;2023-04-30T10:58:24;100174.94;;;17.04;75.33
49945;BME280;35838;49.134;9.212;2023-04-30T11:01:56;100169.44;;;17.13;75.18
49945;BME280;35838;49.134;9.212;2023-04-30T11:03:31;100171.44;;;17.03;72.72
49945;BME280;35838;49.134;9.212;2023-04-30T11:05:08;100167.22;;;16.98;70.31
49945;BME280;35838;49.134;9.212;2023-04-30T11:06:50;100165.94;;;17.14;73.39
49945;BME280;35838;49.134;9.212;2023-04-30T11:08:33;100167.81;;;17.09;72.68
49945;BME280;35838;49.134;9.212;2023-04-30T11:10:07;100167.88;;;17.06;75.16
49945;BME280;35838;49.134;9.212;2023-04-30T11:11:42;100171.50;;;17.02;74.30
49945;BME280;35838;49.134;9.212;2023-04-30T11:13:17;100165.53;;;16.95;75.61
49945;BME280;35838;49.134;9.212;2023-04-30T11:15:00;100165.31;;;17.04;77.38
49945;BME280;35838;49.134;9.212;2023-04-30T11:16:38;100166.84;;;17.12;77.83
49945;BME280;35838;49.134;9.212;2023-04-30T11:18:12;100166.31;;;16.99;71.29
49945;BME280;35838;49.134;9.212;2023-04-30T11:19:46;100169.84;;;16.98;71.48
49945;BME280;35838;49.134;9.212;2023-04-30T11:21:20;100165.41;;;17.00;69.84
49945;BME280;35838;49.134;9.212;2023-04-30T11:24:54;100162.81;;;17.00;66.48
49945;BME280;35838;49.134;9.212;2023-04-30T11:28:22;100174.00;;;17.06;72.55
49945;BME280;35838;49.134;9.212;2023-04-30T11:29:59;100173.38;;;16.97;68.42
49945;BME280;35838;49.134;9.212;2023-04-30T11:31:33;100166.31;;;16.99;73.21
49945;BME280;35838;49.134;9.212;2023-04-30T11:33:06;100166.47;;;16.92;69.03
49945;BME280;35838;49.134;9.212;2023-04-30T11:34:38;100166.41;;;16.96;70.45
49945;BME280;35838;49.134;9.212;2023-04-30T11:36:12;100168.34;;;16.87;72.25
49945;BME280;35838;49.134;9.212;2023-04-30T11:37:46;100168.34;;;16.87;73.52
49945;BME280;35838;49.134;9.212;2023-04-30T11:39:20;100167.59;;;16.82;73.84
49945;BME280;35838;49.134;9.212;2023-04-30T11:40:53;100163.19;;;16.84;72.82
49945;BME280;35838;49.134;9.212;2023-04-30T11:42:27;100165.06;;;16.79;72.10
49945;BME280;35838;49.134;9.212;2023-04-30T11:44:08;100163.47;;;16.73;72.27
49945;BME280;35838;49.134;9.212;2023-04-30T11:46:03;100169.44;;;16.79;71.33
49945;BME280;35838;49.134;9.212;2023-04-30T11:47:38;100168.53;;;16.80;70.81
49945;BME280;35838;49.134;9.212;2023-04-30T11:49:12;100165.84;;;16.83;73.49
49945;BME280;35838;49.134;9.212;2023-04-30T11:50:46;100156.44;;;16.74;70.36
49945;BME280;35838;49.134;9.212;2023-04-30T11:52:19;100159.00;;;16.77;74.29
49945;BME280;35838;49.134;9.212;2023-04-30T11:53:53;100152.75;;;16.83;68.72
49945;BME280;35838;49.134;9.212;2023-04-30T11:55:27;100148.28;;;16.85;68.20
49945;BME280;35838;49.134;9.212;2023-04-30T11:57:00;100150.97;;;16.83;66.04
49945;BME280;35838;49.134;9.212;2023-04-30T11:58:34;100152.63;;;16.87;67.48
49945;BME280;35838;49.134;9.212;2023-04-30T12:00:12;100154.22;;;16.93;69.36
49945;BME280;35838;49.134;9.212;2023-04-30T12:01:48;100156.38;;;16.77;65.51
49945;BME280;35838;49.134;9.212;2023-04-30T12:03:23;100153.63;;;16.82;67.64
49945;BME280;35838;49.134;9.212;2023-04-30T12:04:56;100150.91;;;16.86;70.40
49945;BME280;35838;49.134;9.212;2023-04-30T12:06:30;100152.63;;;16.87;72.51
49945;BME280;35838;49.134;9.212;2023-04-30T12:08:04;100156.22;;;16.83;70.00
49945;BME280;35838;49.134;9.212;2023-04-30T12:09:50;100145.53;;;16.56;69.00
49945;BME280;35838;49.134;9.212;2023-04-30T12:11:25;100149.81;;;16.60;69.27
49945;BME280;35838;49.134;9.212;2023-04-30T12:12:59;100141.78;;;16.67;72.67
49945;BME280;35838;49.134;9.212;2023-04-30T12:14:32;100138.97;;;16.74;72.24
49945;BME280;35838;49.134;9.212;2023-04-30T12:16:06;100142.44;;;16.75;69.96
49945;BME280;35838;49.134;9.212;2023-04-30T12:17:43;100138.53;;;16.91;73.61
49945;BME280;35838;49.134;9.212;2023-04-30T12:19:17;100133.75;;;17.07;74.96
49945;BME280;35838;49.134;9.212;2023-04-30T12:20:50;100131.03;;;17.11;74.18
49945;BME280;35838;49.134;9.212;2023-04-30T12:22:24;100131.56;;;17.23;71.23
49945;BME280;35838;49.134;9.212;2023-04-30T12:23:58;100127.66;;;17.38;72.50
49945;BME280;35838;49.134;9.212;2023-04-30T12:25:38;100134.09;;;17.58;68.78
49945;BME280;35838;49.134;9.212;2023-04-30T12:27:12;100125.19;;;17.64;70.38
49945;BME280;35838;49.134;9.212;2023-04-30T12:28:47;100124.97;;;17.70;69.34
49945;BME280;35838;49.134;9.212;2023-04-30T12:30:22;100117.69;;;17.80;70.93
49945;BME280;35838;49.134;9.212;2023-04-30T12:31:56;100121.78;;;17.89;67.33
49945;BME280;35838;49.134;9.212;2023-04-30T12:33:32;100121.25;;;18.07;70.73
49945;BME280;35838;49.134;9.212;2023-04-30T12:35:07;100117.22;;;18.24;75.38
49945;BME280;35838;49.134;9.212;2023-04-30T12:36:41;100120.16;;;18.41;74.38
49945;BME280;35838;49.134;9.212;2023-04-30T12:38:15;100121.56;;;18.52;72.69
49945;BME280;35838;49.134;9.212;2023-04-30T12:39:50;100113.09;;;18.43;64.00
49945;BME280;35838;49.134;9.212;2023-04-30T12:41:25;100113.00;;;18.20;58.66
49945;BME280;35838;49.134;9.212;2023-04-30T12:43:03;100106.97;;;18.43;65.75
49945;BME280;35838;49.134;9.212;2023-04-30T12:44:43;100107.13;;;18.38;60.86
49945;BME280;35838;49.134;9.212;2023-04-30T12:46:24;100112.69;;;18.29;60.29
49945;BME280;35838;49.134;9.212;2023-04-30T12:47:59;100114.50;;;18.27;63.21
49945;BME280;35838;49.134;9.212;2023-04-30T12:49:35;100112.69;;;18.29;61.12
49945;BME280;35838;49.134;9.212;2023-04-30T12:51:09;100112.28;;;18.14;60.14
49945;BME280;35838;49.134;9.212;2023-04-30T12:52:43;100105.66;;;18.29;62.76
49945;BME280;35838;49.134;9.212;2023-04-30T12:54:23;100108.03;;;18.10;60.73
49945;BME280;35838;49.134;9.212;2023-04-30T12:56:07;100106.63;;;18.27;65.97
49945;BME280;35838;49.134;9.212;2023-04-30T12:57:41;100106.34;;;18.35;64.42
49945;BME280;35838;49.134;9.212;2023-04-30T12:59:36;100101.84;;;18.38;68.76
49945;BME280;35838;49.134;9.212;2023-04-30T13:01:10;100092.69;;;18.25;65.01
49945;BME280;35838;49.134;9.212;2023-04-30T13:02:45;100096.06;;;18.28;67.85
49945;BME280;35838;49.134;9.212;2023-04-30T13:04:19;100098.47;;;18.35;67.19
49945;BME280;35838;49.134;9.212;2023-04-30T13:05:56;100088.94;;;18.32;63.10
49945;BME280;35838;49.134;9.212;2023-04-30T13:07:35;100092.88;;;18.45;64.14
49945;BME280;35838;49.134;9.212;2023-04-30T13:09:10;100099.34;;;18.35;63.60
49945;BME280;35838;49.134;9.212;2023-04-30T13:10:44;100090.75;;;18.30;64.64
49945;BME280;35838;49.134;9.212;2023-04-30T13:12:17;100096.72;;;18.35;66.52
49945;BME280;35838;49.134;9.212;2023-04-30T13:13:51;100087.41;;;18.52;64.98
49945;BME280;35838;49.134;9.212;2023-04-30T13:15:26;100087.78;;;18.66;65.48
49945;BME280;35838;49.134;9.212;2023-04-30T13:16:59;100088.50;;;18.97;62.47
49945;BME280;35838;49.134;9.212;2023-04-30T13:18:35;100084.59;;;19.32;65.73
49945;BME280;35838;49.134;9.212;2023-04-30T13:20:09;100077.75;;;19.74;70.95
49945;BME280;35838;49.134;9.212;2023-04-30T13:21:45;100067.66;;;19.85;65.12
49945;BME280;35838;49.134;9.212;2023-04-30T13:23:19;100069.47;;;19.83;63.68
49945;BME280;35838;49.134;9.212;2023-04-30T13:24:52;100060.63;;;19.86;66.26
49945;BME280;35838;49.134;9.212;2023-04-30T13:26:26;100060.66;;;20.07;63.07
49945;BME280;35838;49.134;9.212;2023-04-30T13:28:00;100060.47;;;19.89;58.22
49945;BME280;35838;49.134;9.212;2023-04-30T13:29:34;100060.59;;;19.64;58.29
49945;BME280;35838;49.134;9.212;2023-04-30T13:31:08;100062.13;;;19.69;58.95
49945;BME280;35838;49.134;9.212;2023-04-30T13:32:41;100050.56;;;19.96;61.01
49945;BME280;35838;49.134;9.212;2023-04-30T13:34:15;100056.97;;;20.11;63.87
49945;BME280;35838;49.134;9.212;2023-04-30T13:35:49;100058.63;;;19.69;55.23
49945;BME280;35838;49.134;9.212;2023-04-30T13:37:25;100057.22;;;19.60;53.44
49945;BME280;35838;49.134;9.212;2023-04-30T13:39:00;100057.94;;;19.64;59.87
49945;BME280;35838;49.134;9.212;2023-04-30T13:40:34;100060.69;;;19.61;59.29
49945;BME280;35838;49.134;9.212;2023-04-30T13:42:08;100051.03;;;19.39;57.35
49945;BME280;35838;49.134;9.212;2023-04-30T13:43:41;100054.56;;;19.38;56.58
49945;BME280;35838;49.134;9.212;2023-04-30T13:45:15;100052.56;;;18.97;52.11
49945;BME280;35838;49.134;9.212;2023-04-30T13:46:49;100047.31;;;18.97;56.41
49945;BME280;35838;49.134;9.212;2023-04-30T13:48:23;100050.28;;;19.12;57.21
49945;BME280;35838;49.134;9.212;2023-04-30T13:49:56;100036.66;;;19.24;59.85
49945;BME280;35838;49.134;9.212;2023-04-30T13:51:30;100038.97;;;19.32;57.33
49945;BME280;35838;49.134;9.212;2023-04-30T13:53:06;100041.53;;;19.57;60.73
49945;BME280;35838;49.134;9.212;2023-04-30T13:54:40;100039.28;;;19.70;59.06
49945;BME280;35838;49.134;9.212;2023-04-30T13:56:13;100036.09;;;19.62;55.18
49945;BME280;35838;49.134;9.212;2023-04-30T13:57:47;100028.38;;;19.57;55.61
49945;BME280;35838;49.134;9.212;2023-04-30T13:59:21;100029.41;;;19.75;58.91
49945;BME280;35838;49.134;9.212;2023-04-30T14:00:54;100026.00;;;19.73;59.50
49945;BME280;35838;49.134;9.212;2023-04-30T14:04:02;100034.63;;;19.77;56.26
49945;BME280;35838;49.134;9.212;2023-04-30T14:05:35;100028.25;;;19.82;56.12
49945;BME280;35838;49.134;9.212;2023-04-30T14:07:09;100021.31;;;19.80;54.49
49945;BME280;35838;49.134;9.212;2023-04-30T14:08:46;100018.69;;;19.80;52.61
49945;BME280;35838;49.134;9.212;2023-04-30T14:10:19;100019.41;;;19.85;53.94
49945;BME280;35838;49.134;9.212;2023-04-30T14:11:53;100028.47;;;20.00;58.42
49945;BME280;35838;49.134;9.212;2023-04-30T14:13:25;100024.41;;;19.91;56.19
49945;BME280;35838;49.134;9.212;2023-04-30T14:14:59;100025.09;;;19.96;52.71
49945;BME280;35838;49.134;9.212;2023-04-30T14:16:33;100028.19;;;19.84;52.82
49945;BME280;35838;49.134;9.212;2023-04-30T14:18:06;100014.56;;;19.74;51.53
49945;BME280;35838;49.134;9.212;2023-04-30T14:19:40;100024.81;;;19.58;56.51
49945;BME280;35838;49.134;9.212;2023-04-30T14:21:13;100022.72;;;19.44;52.97
49945;BME280;35838;49.134;9.212;2023-04-30T14:22:47;100023.38;;;19.27;54.64
49945;BME280;35838;49.134;9.212;2023-04-30T14:24:23;100018.81;;;19.08;52.45
49945;BME280;35838;49.134;9.212;2023-04-30T14:25:57;100021.34;;;19.12;53.54
49945;BME280;35838;49.134;9.212;2023-04-30T14:27:31;100024.59;;;18.94;50.58